CW4674 Weather Reports


Display with metric or nautical units.
time (UTC)temp
F
wind
direction
speed
MPH
gust
MPH
rain 1hr
in
rain 24hr
in
rain mn
in
humidity
%
barometer
mb
20200810075051 65 47 0.0 7.0 0.00 0.00 0.00 61 1025.1
20200810073351 65 40 0.0 6.0 0.00 0.00 0.00 62 1025.0
20200810065257 64 49 3.0 6.0 0.00 0.00 0.00 63 1024.8
20200810063409 63 35 2.0 4.0 0.00 0.00 0.00 64 1024.9
20200810055635 62 46 0.0 4.0 0.00 0.00 0.00 64 1024.8
20200810053901 62 39 2.0 3.0 0.00 0.00 0.00 65 1024.4
20200810051941 62 34 3.0 5.0 0.00 0.00 0.00 65 1024.4
20200810045534 62 47 1.0 7.0 0.00 0.00 0.00 65 1024.3
20200810044633 62 43 2.0 8.0 0.00 0.00 0.00 64 1024.2
20200810043733 62 44 3.0 5.0 0.00 0.00 0.00 64 1024.3
20200810042833 62 38 3.0 8.0 0.00 0.00 0.00 64 1024.2
20200810041933 62 40 2.0 7.0 0.00 0.00 0.00 64 1024.1
20200810034726 62 38 0.0 4.0 0.00 0.00 0.00 63 1024.1
20200810033730 62 44 0.0 4.0 0.00 0.00 0.00 63 1023.9
20200810032830 62 43 3.0 5.0 0.00 0.00 0.00 63 1024.0
20200810024624 62 81 0.0 2.0 0.00 0.00 0.00 63 1023.6
20200810022824 63 30 0.0 4.0 0.00 0.00 0.00 63 1023.6
20200810021926 63 22 2.0 4.0 0.00 0.00 0.00 63 1023.5
20200810020419 63 38 0.0 9.0 0.00 0.00 0.00 63 1023.3
20200810013719 64 55 0.0 5.0 0.00 0.00 0.00 64 1023.5
20200810012127 64 59 1.0 4.0 0.00 0.00 0.00 64 1023.5
20200810005513 64 41 0.0 2.0 0.00 0.00 0.00 63 1023.2
20200810004613 64 44 0.0 5.0 0.00 0.00 0.00 64 1023.2
20200810003713 64 60 0.0 3.0 0.00 0.00 0.00 63 1023.2
20200810002813 64 42 2.0 5.0 0.00 0.00 0.00 63 1023.0
20200810001913 65 63 2.0 5.0 0.00 0.00 0.00 64 1023.0
20200809234624 65 42 1.0 5.0 0.00 0.00 0.00 68 1023.0
20200809232824 65 46 1.0 4.0 0.00 0.00 0.00 69 1022.7
20200809231923 66 38 2.0 4.0 0.00 0.00 0.00 69 1022.8
20200809225514 66 41 0.0 5.0 0.00 0.00 0.00 71 1022.7
20200809223715 66 34 0.0 4.0 0.00 0.00 0.00 71 1022.7
20200809222814 66 25 0.0 2.0 0.00 0.00 0.00 71 1022.5
20200809143631 79 18 2.0 6.0 0.00 0.00 0.00 62 1020.8
20200809141831 79 33 0.0 7.0 0.00 0.00 0.00 62 1020.9
20200809140326 79 38 4.0 6.0 0.00 0.00 0.00 62 1020.9
20200809134527 79 15 0.0 5.0 0.00 0.00 0.00 62 1020.9
20200809133626 79 26 2.0 4.0 0.00 0.00 0.00 63 1021.0
20200809131829 78 27 0.0 3.0 0.00 0.00 0.00 63 1021.0
20200809130323 78 33 0.0 5.0 0.00 0.00 0.00 63 1021.1
20200809124523 79 28 0.0 4.0 0.00 0.00 0.00 63 1021.2
20200809123623 78 301 0.0 2.0 0.00 0.00 0.00 63 1021.0
20200809121823 78 226 0.0 4.0 0.00 0.00 0.00 63 1021.1
20200809115417 77 35 1.0 3.0 0.00 0.00 0.00 64 1021.1
20200809114518 77 348 0.0 2.0 0.00 0.00 0.00 63 1021.2
20200809112718 77 29 0.0 3.0 0.00 0.00 0.00 65 1021.5
20200809110312 77 3 0.0 4.0 0.00 0.00 0.00 65 1021.5
20200809105412 76 26 0.0 5.0 0.00 0.00 0.00 65 1021.4
20200809104512 77 44 2.0 5.0 0.00 0.00 0.00 65 1021.6
20200809102713 76 29 0.0 5.0 0.00 0.00 0.00 65 1021.6
20200809101813 76 53 1.0 4.0 0.00 0.00 0.00 65 1021.4
20200809095408 76 43 0.0 3.0 0.00 0.00 0.00 65 1021.6
20200809094508 75 39 2.0 4.0 0.00 0.00 0.00 65 1021.8
20200809093608 75 35 1.0 3.0 0.00 0.00 0.00 66 1021.8
20200809092708 75 47 0.0 6.0 0.00 0.00 0.00 66 1021.8
20200809090301 74 41 0.0 5.0 0.00 0.00 0.00 68 1021.8
20200809085402 74 24 0.0 3.0 0.00 0.00 0.00 69 1021.9
20200809084501 74 36 3.0 8.0 0.00 0.00 0.00 69 1021.9
20200809080258 72 22 1.0 3.0 0.00 0.00 0.00 71 1021.7